Monday, October 16, 2017, 7:31 PM CDT
Back to Local

KHLC, Hill City Municipal Airport

Location: Hill City, KS, United States Lat: 39.367
Local Time: 7:31 PM CDT ( 0:31 GMT) Lon: -99.833
Time Zone: US/Central Elev: 2230 ft

Show me the last for .
Show Decoded

2017-10-16 18:53 METAR KHLC 162353Z AUTO 18008KT 9SM CLR 19/02 A3012 RMK AO2 SLP200 60000
                 T01940022 10256 20194 56008 TSNO =
2017-10-16 17:53 METAR KHLC 162253Z AUTO 19011G23KT 10SM CLR 23/01 A3013 RMK AO2 RAB2154E04
                 SLP197 P0000 T02330006 TSNO =
2017-10-16 16:53 METAR KHLC 162153Z AUTO 20013G24KT 10SM CLR 25/00 A3013 RMK AO2 PK WND
                 18026/2124 SLP198 T02500000 TSNO =
2017-10-16 15:53 METAR KHLC 162053Z AUTO 20017G26KT 10SM CLR 26/M01 A3015 RMK AO2 PK WND
                 23028/2007 SLP202 T02561006 56035 TSNO =
2017-10-16 14:53 METAR KHLC 161953Z AUTO 21016KT 10SM CLR 25/00 A3018 RMK AO2 PK WND 24028/1902
                 SLP212 T02500000 TSNO =
2017-10-16 13:53 METAR KHLC 161853Z AUTO 22013G28KT 10SM CLR 24/01 A3022 RMK AO2 PK WND
                 22031/1833 SLP228 T02440011 =
2017-10-16 11:53 METAR KHLC 161653Z AUTO 23014G24KT 10SM CLR 21/02 A3030 RMK AO2 PK WND
                 22027/1638 SLP257 T02060022 =
2017-10-16 10:53 METAR KHLC 161553Z AUTO 22012G20KT 9SM CLR 18/02 A3032 RMK AO2 SLP267 T01780017
                 =
2017-10-16 09:53 METAR KHLC 161453Z AUTO 23007KT 10SM CLR 12/04 A3033 RMK AO2 SLP274 T01220039
                 57006 =
2017-10-16 08:53 METAR KHLC 161353Z AUTO 25003KT 10SM CLR 06/02 A3034 RMK AO2 SLP282 T00560017 =
2017-10-16 07:53 METAR KHLC 161253Z AUTO 28003KT 10SM CLR 01/M01 A3034 RMK AO2 SLP284 T00111006 =
2017-10-16 06:53 METAR KHLC 161153Z AUTO 29003KT 10SM CLR 02/00 A3035 RMK AO2 SLP280 T00170000
                 10039 20000 58006 =
2017-10-16 05:53 METAR KHLC 161053Z AUTO 27003KT 10SM CLR 02/00 A3036 RMK AO2 SLP280 T00170000 =
2017-10-16 04:53 METAR KHLC 160953Z AUTO 28003KT 10SM CLR 03/01 A3036 RMK AO2 SLP282 T00280006 =
2017-10-16 03:53 METAR KHLC 160853Z AUTO 27005KT 10SM CLR 03/01 A3037 RMK AO2 SLP283 T00330006
                 58007 =
2017-10-16 02:53 METAR KHLC 160753Z AUTO 27004KT 10SM CLR 02/01 A3038 RMK AO2 SLP291 T00220006 =
2017-10-16 01:53 METAR KHLC 160653Z AUTO 27003KT 10SM CLR 03/01 A3039 RMK AO2 SLP294 T00280011 =
2017-10-16 00:53 METAR KHLC 160553Z AUTO 29003KT 10SM CLR 03/01 A3039 RMK AO2 SLP295 T00280006
                 10156 20028 401940006 50003 =
2017-10-15 23:53 METAR KHLC 160453Z AUTO 29003KT 10SM CLR 04/01 A3040 RMK AO2 SLP298 T00390011 =
2017-10-15 22:53 METAR KHLC 160353Z AUTO 30004KT 10SM CLR 04/01 A3039 RMK AO2 SLP299 T00440011 =
2017-10-15 21:53 METAR KHLC 160253Z AUTO 27003KT 10SM CLR 05/02 A3038 RMK AO2 SLP298 T00500017
                 51006 =
2017-10-15 20:53 METAR KHLC 160153Z AUTO 00000KT 9SM CLR 07/02 A3038 RMK AO2 SLP299 T00720022 =
2017-10-15 19:53 METAR KHLC 160053Z AUTO 35003KT 10SM CLR 09/01 A3037 RMK AO2 SLP295 T00940011 =

Support USWX by starting your Amazon purchase here.